CheckWX is a tool to help pilots better visualize weather data.  It is not intended as a substitute for an official pre-flight weather briefing.

07:12:14 UTC

EGWU TAF
RAF Northolt Airport
London, United Kingdom
TAF EGWU 280436Z 2806/2824 26012KT 9999 FEW025 PROB40 TEMPO 2810/2816 27018G28KT PROB30 TEMPO 2812/2816 7000 SHRA BKN022CB

Jan-28@
06:00 UTC

Jan-28 @ 06:00 UTC

Jan-29@
00:00 UTC

Jan-29 @ 00:00 UTC

TAF EGWU 280436Z 2806/2824 26012KT 9999 FEW025
Wind
  • 260° at 12 KTS
Cloud Levels
  • Few at 2,500' AGL

Jan-28@
10:00 UTC

Jan-28 @ 10:00 UTC

Jan-28@
16:00 UTC

Jan-28 @ 16:00 UTC

PROB40 TEMPO 2810/2816 27018G28KT

Temporary - 40% Likelihood

Temporary - 40% Likelihood during this time.

Wind
  • 270° at 18 KTS
  • {Gusting to 28 KTS

Jan-28@
12:00 UTC

Jan-28 @ 12:00 UTC

Jan-28@
16:00 UTC

Jan-28 @ 16:00 UTC

PROB30 TEMPO 2812/2816 7000 SHRA BKN022CB

Temporary - 30% Likelihood

Temporary - 30% Likelihood during this time.

Conditions
Rain
Cloud Levels
  • Broken at 2,200' AGL